sensor_id;sensor_type;location;lat;lon;timestamp;temperature;humidity
45207;DHT22;30950;53.086;21.576;2022-09-17T00:01:14;10.70;99.90
45207;DHT22;30950;53.086;21.576;2022-09-17T00:03:43;10.70;99.90
45207;DHT22;30950;53.086;21.576;2022-09-17T00:06:15;10.70;99.90
45207;DHT22;30950;53.086;21.576;2022-09-17T00:08:42;10.70;99.90
45207;DHT22;30950;53.086;21.576;2022-09-17T00:11:12;10.70;99.90
45207;DHT22;30950;53.086;21.576;2022-09-17T00:13:41;10.70;99.90
45207;DHT22;30950;53.086;21.576;2022-09-17T00:16:09;10.60;99.90
45207;DHT22;30950;53.086;21.576;2022-09-17T00:18:37;10.60;99.90
45207;DHT22;30950;53.086;21.576;2022-09-17T00:21:15;10.60;99.90
45207;DHT22;30950;53.086;21.576;2022-09-17T00:23:43;10.60;99.90
45207;DHT22;30950;53.086;21.576;2022-09-17T00:26:12;10.60;99.90
45207;DHT22;30950;53.086;21.576;2022-09-17T00:28:39;10.50;99.90
45207;DHT22;30950;53.086;21.576;2022-09-17T00:31:09;10.50;99.90
45207;DHT22;30950;53.086;21.576;2022-09-17T00:33:36;10.50;99.90
45207;DHT22;30950;53.086;21.576;2022-09-17T00:36:04;10.50;99.90
45207;DHT22;30950;53.086;21.576;2022-09-17T00:38:32;10.50;99.90
45207;DHT22;30950;53.086;21.576;2022-09-17T00:41:00;10.50;99.90
45207;DHT22;30950;53.086;21.576;2022-09-17T00:43:43;10.40;99.90
45207;DHT22;30950;53.086;21.576;2022-09-17T00:46:32;10.40;99.90
45207;DHT22;30950;53.086;21.576;2022-09-17T00:49:05;10.40;99.90
45207;DHT22;30950;53.086;21.576;2022-09-17T00:51:39;10.40;99.90
45207;DHT22;30950;53.086;21.576;2022-09-17T00:54:09;10.40;99.90
45207;DHT22;30950;53.086;21.576;2022-09-17T00:56:39;10.40;99.90
45207;DHT22;30950;53.086;21.576;2022-09-17T00:59:07;10.30;99.90
45207;DHT22;30950;53.086;21.576;2022-09-17T01:01:35;10.30;99.90
45207;DHT22;30950;53.086;21.576;2022-09-17T01:04:02;10.30;99.90
45207;DHT22;30950;53.086;21.576;2022-09-17T01:15:38;10.20;99.90
45207;DHT22;30950;53.086;21.576;2022-09-17T01:18:14;10.10;99.90
45207;DHT22;30950;53.086;21.576;2022-09-17T01:31:56;10.00;99.90
45207;DHT22;30950;53.086;21.576;2022-09-17T01:34:35;9.90;99.90
45207;DHT22;30950;53.086;21.576;2022-09-17T01:37:14;9.80;99.90
45207;DHT22;30950;53.086;21.576;2022-09-17T01:42:28;9.80;99.90
45207;DHT22;30950;53.086;21.576;2022-09-17T01:45:17;9.70;99.90
45207;DHT22;30950;53.086;21.576;2022-09-17T01:47:52;9.70;99.90
45207;DHT22;30950;53.086;21.576;2022-09-17T01:50:30;9.60;99.90
45207;DHT22;30950;53.086;21.576;2022-09-17T01:53:02;9.60;99.90
45207;DHT22;30950;53.086;21.576;2022-09-17T01:55:34;9.60;99.90
45207;DHT22;30950;53.086;21.576;2022-09-17T02:00:41;9.50;99.90
45207;DHT22;30950;53.086;21.576;2022-09-17T02:06:05;9.50;99.90
45207;DHT22;30950;53.086;21.576;2022-09-17T02:08:42;9.50;99.90
45207;DHT22;30950;53.086;21.576;2022-09-17T02:11:13;9.50;99.90
45207;DHT22;30950;53.086;21.576;2022-09-17T02:13:52;9.50;99.90
45207;DHT22;30950;53.086;21.576;2022-09-17T02:16:28;9.40;99.90
45207;DHT22;30950;53.086;21.576;2022-09-17T02:21:47;9.30;99.90
45207;DHT22;30950;53.086;21.576;2022-09-17T02:24:25;9.40;99.90
45207;DHT22;30950;53.086;21.576;2022-09-17T02:27:15;9.30;99.90
45207;DHT22;30950;53.086;21.576;2022-09-17T02:29:45;9.30;99.90
45207;DHT22;30950;53.086;21.576;2022-09-17T02:32:12;9.30;99.90
45207;DHT22;30950;53.086;21.576;2022-09-17T02:34:40;9.30;99.90
45207;DHT22;30950;53.086;21.576;2022-09-17T02:37:08;9.20;99.90
45207;DHT22;30950;53.086;21.576;2022-09-17T02:39:36;9.20;99.90
45207;DHT22;30950;53.086;21.576;2022-09-17T02:55:31;9.20;99.90
45207;DHT22;30950;53.086;21.576;2022-09-17T03:00:39;9.10;99.90
45207;DHT22;30950;53.086;21.576;2022-09-17T03:03:20;9.10;99.90
45207;DHT22;30950;53.086;21.576;2022-09-17T03:05:49;9.10;99.90
45207;DHT22;30950;53.086;21.576;2022-09-17T03:08:17;9.10;99.90
45207;DHT22;30950;53.086;21.576;2022-09-17T03:10:46;9.10;99.90
45207;DHT22;30950;53.086;21.576;2022-09-17T03:13:16;9.10;99.90
45207;DHT22;30950;53.086;21.576;2022-09-17T03:15:43;9.00;99.90
45207;DHT22;30950;53.086;21.576;2022-09-17T03:18:11;9.00;99.90
45207;DHT22;30950;53.086;21.576;2022-09-17T03:20:38;9.00;99.90
45207;DHT22;30950;53.086;21.576;2022-09-17T03:23:05;9.00;99.90
45207;DHT22;30950;53.086;21.576;2022-09-17T03:25:33;9.00;99.90
45207;DHT22;30950;53.086;21.576;2022-09-17T03:28:00;9.00;99.90
45207;DHT22;30950;53.086;21.576;2022-09-17T03:30:27;9.00;99.90
45207;DHT22;30950;53.086;21.576;2022-09-17T03:32:55;9.00;99.90
45207;DHT22;30950;53.086;21.576;2022-09-17T03:35:22;9.00;99.90
45207;DHT22;30950;53.086;21.576;2022-09-17T03:37:49;9.00;99.90
45207;DHT22;30950;53.086;21.576;2022-09-17T03:40:16;8.90;99.90
45207;DHT22;30950;53.086;21.576;2022-09-17T03:42:45;8.90;99.90
45207;DHT22;30950;53.086;21.576;2022-09-17T03:45:12;8.90;99.90
45207;DHT22;30950;53.086;21.576;2022-09-17T03:47:39;8.90;99.90
45207;DHT22;30950;53.086;21.576;2022-09-17T03:50:07;8.90;99.90
45207;DHT22;30950;53.086;21.576;2022-09-17T03:52:34;8.90;99.90
45207;DHT22;30950;53.086;21.576;2022-09-17T03:55:02;8.90;99.90
45207;DHT22;30950;53.086;21.576;2022-09-17T03:57:30;8.90;99.90
45207;DHT22;30950;53.086;21.576;2022-09-17T03:59:57;8.80;99.90
45207;DHT22;30950;53.086;21.576;2022-09-17T04:02:24;8.80;99.90
45207;DHT22;30950;53.086;21.576;2022-09-17T04:04:52;8.80;99.90
45207;DHT22;30950;53.086;21.576;2022-09-17T04:07:20;8.80;99.90
45207;DHT22;30950;53.086;21.576;2022-09-17T04:09:47;8.80;99.90
45207;DHT22;30950;53.086;21.576;2022-09-17T04:12:14;8.80;99.90
45207;DHT22;30950;53.086;21.576;2022-09-17T04:14:41;8.80;99.90
45207;DHT22;30950;53.086;21.576;2022-09-17T04:17:08;8.80;99.90
45207;DHT22;30950;53.086;21.576;2022-09-17T04:19:36;8.70;99.90
45207;DHT22;30950;53.086;21.576;2022-09-17T04:22:03;8.80;99.90
45207;DHT22;30950;53.086;21.576;2022-09-17T04:24:31;8.80;99.90
45207;DHT22;30950;53.086;21.576;2022-09-17T04:26:58;8.70;99.90
45207;DHT22;30950;53.086;21.576;2022-09-17T04:29:25;8.80;99.90
45207;DHT22;30950;53.086;21.576;2022-09-17T04:31:52;8.70;99.90
45207;DHT22;30950;53.086;21.576;2022-09-17T04:34:20;8.70;99.90
45207;DHT22;30950;53.086;21.576;2022-09-17T04:36:47;8.80;99.90
45207;DHT22;30950;53.086;21.576;2022-09-17T04:39:14;8.70;99.90
45207;DHT22;30950;53.086;21.576;2022-09-17T04:41:43;8.80;99.90
45207;DHT22;30950;53.086;21.576;2022-09-17T04:44:10;8.80;99.90
45207;DHT22;30950;53.086;21.576;2022-09-17T04:46:37;8.80;99.90
45207;DHT22;30950;53.086;21.576;2022-09-17T04:49:05;8.70;99.90
45207;DHT22;30950;53.086;21.576;2022-09-17T04:51:33;8.70;99.90
45207;DHT22;30950;53.086;21.576;2022-09-17T04:54:00;8.70;99.90
45207;DHT22;30950;53.086;21.576;2022-09-17T04:56:27;8.70;99.90
45207;DHT22;30950;53.086;21.576;2022-09-17T04:58:55;8.80;99.90
45207;DHT22;30950;53.086;21.576;2022-09-17T05:01:22;8.80;99.90
45207;DHT22;30950;53.086;21.576;2022-09-17T05:03:50;8.80;99.90
45207;DHT22;30950;53.086;21.576;2022-09-17T05:06:17;8.80;99.90
45207;DHT22;30950;53.086;21.576;2022-09-17T05:08:44;8.80;99.90
45207;DHT22;30950;53.086;21.576;2022-09-17T05:11:12;8.80;99.90
45207;DHT22;30950;53.086;21.576;2022-09-17T05:13:39;8.90;99.90
45207;DHT22;30950;53.086;21.576;2022-09-17T05:16:06;8.90;99.90
45207;DHT22;30950;53.086;21.576;2022-09-17T05:18:34;8.90;99.90
45207;DHT22;30950;53.086;21.576;2022-09-17T05:21:01;8.90;99.90
45207;DHT22;30950;53.086;21.576;2022-09-17T05:23:28;9.00;99.90
45207;DHT22;30950;53.086;21.576;2022-09-17T05:25:59;9.00;99.90
45207;DHT22;30950;53.086;21.576;2022-09-17T05:28:27;9.00;99.90
45207;DHT22;30950;53.086;21.576;2022-09-17T05:30:58;9.00;99.90
45207;DHT22;30950;53.086;21.576;2022-09-17T05:33:26;9.10;99.90
45207;DHT22;30950;53.086;21.576;2022-09-17T05:35:53;9.10;99.90
45207;DHT22;30950;53.086;21.576;2022-09-17T05:38:21;9.10;99.90
45207;DHT22;30950;53.086;21.576;2022-09-17T05:40:49;9.20;99.90
45207;DHT22;30950;53.086;21.576;2022-09-17T05:43:17;9.20;99.90
45207;DHT22;30950;53.086;21.576;2022-09-17T05:45:44;9.30;99.90
45207;DHT22;30950;53.086;21.576;2022-09-17T05:48:13;9.30;99.90
45207;DHT22;30950;53.086;21.576;2022-09-17T05:50:41;9.40;99.90
45207;DHT22;30950;53.086;21.576;2022-09-17T05:53:12;9.50;99.90
45207;DHT22;30950;53.086;21.576;2022-09-17T05:55:40;9.50;99.90
45207;DHT22;30950;53.086;21.576;2022-09-17T05:58:16;9.60;99.90
45207;DHT22;30950;53.086;21.576;2022-09-17T06:00:45;9.60;99.90
45207;DHT22;30950;53.086;21.576;2022-09-17T06:03:16;9.70;99.90
45207;DHT22;30950;53.086;21.576;2022-09-17T06:05:52;9.70;99.90
45207;DHT22;30950;53.086;21.576;2022-09-17T06:08:21;9.80;99.90
45207;DHT22;30950;53.086;21.576;2022-09-17T06:10:49;9.80;99.90
45207;DHT22;30950;53.086;21.576;2022-09-17T06:13:17;9.90;99.90
45207;DHT22;30950;53.086;21.576;2022-09-17T06:15:54;9.90;99.90
45207;DHT22;30950;53.086;21.576;2022-09-17T06:18:21;10.00;99.90
45207;DHT22;30950;53.086;21.576;2022-09-17T06:21:02;10.10;99.90
45207;DHT22;30950;53.086;21.576;2022-09-17T06:23:33;10.20;99.90
45207;DHT22;30950;53.086;21.576;2022-09-17T06:26:05;10.20;99.90
45207;DHT22;30950;53.086;21.576;2022-09-17T06:28:33;10.30;99.90
45207;DHT22;30950;53.086;21.576;2022-09-17T06:31:08;10.40;99.90
45207;DHT22;30950;53.086;21.576;2022-09-17T06:33:35;10.40;99.90
45207;DHT22;30950;53.086;21.576;2022-09-17T06:36:05;10.50;99.90
45207;DHT22;30950;53.086;21.576;2022-09-17T06:38:39;10.60;99.90
45207;DHT22;30950;53.086;21.576;2022-09-17T06:41:06;10.60;99.90
45207;DHT22;30950;53.086;21.576;2022-09-17T06:43:34;10.70;99.90
45207;DHT22;30950;53.086;21.576;2022-09-17T06:46:03;10.80;99.90
45207;DHT22;30950;53.086;21.576;2022-09-17T06:48:33;10.80;99.90
45207;DHT22;30950;53.086;21.576;2022-09-17T06:51:06;10.90;99.90
45207;DHT22;30950;53.086;21.576;2022-09-17T06:53:35;11.00;99.90
45207;DHT22;30950;53.086;21.576;2022-09-17T06:56:04;11.00;99.90
45207;DHT22;30950;53.086;21.576;2022-09-17T06:58:34;11.10;99.90
45207;DHT22;30950;53.086;21.576;2022-09-17T07:01:12;11.10;99.90
45207;DHT22;30950;53.086;21.576;2022-09-17T07:03:41;11.20;99.90
45207;DHT22;30950;53.086;21.576;2022-09-17T07:06:10;11.30;99.90
45207;DHT22;30950;53.086;21.576;2022-09-17T07:08:38;11.30;99.90
45207;DHT22;30950;53.086;21.576;2022-09-17T07:11:06;11.40;99.90
45207;DHT22;30950;53.086;21.576;2022-09-17T07:13:34;11.40;99.90
45207;DHT22;30950;53.086;21.576;2022-09-17T07:16:02;11.50;99.90
45207;DHT22;30950;53.086;21.576;2022-09-17T07:18:31;11.50;99.90
45207;DHT22;30950;53.086;21.576;2022-09-17T07:21:01;11.60;99.90
45207;DHT22;30950;53.086;21.576;2022-09-17T07:23:30;11.70;99.90
45207;DHT22;30950;53.086;21.576;2022-09-17T07:26:01;11.80;99.90
45207;DHT22;30950;53.086;21.576;2022-09-17T07:28:28;11.80;99.90
45207;DHT22;30950;53.086;21.576;2022-09-17T07:30:56;11.90;99.90
45207;DHT22;30950;53.086;21.576;2022-09-17T07:33:25;12.00;99.90
45207;DHT22;30950;53.086;21.576;2022-09-17T07:35:55;12.00;99.90
45207;DHT22;30950;53.086;21.576;2022-09-17T07:38:23;12.00;99.90
45207;DHT22;30950;53.086;21.576;2022-09-17T07:41:02;12.20;99.90
45207;DHT22;30950;53.086;21.576;2022-09-17T07:43:32;12.20;99.90
45207;DHT22;30950;53.086;21.576;2022-09-17T07:46:02;12.30;99.90
45207;DHT22;30950;53.086;21.576;2022-09-17T07:48:30;12.30;99.90
45207;DHT22;30950;53.086;21.576;2022-09-17T07:50:58;12.40;99.90
45207;DHT22;30950;53.086;21.576;2022-09-17T07:53:26;12.50;99.90
45207;DHT22;30950;53.086;21.576;2022-09-17T07:55:55;12.60;99.90
45207;DHT22;30950;53.086;21.576;2022-09-17T07:58:33;12.70;99.90
45207;DHT22;30950;53.086;21.576;2022-09-17T08:01:08;12.90;99.90
45207;DHT22;30950;53.086;21.576;2022-09-17T08:03:39;13.00;99.90
45207;DHT22;30950;53.086;21.576;2022-09-17T08:06:09;13.10;99.90
45207;DHT22;30950;53.086;21.576;2022-09-17T08:08:37;13.20;99.90
45207;DHT22;30950;53.086;21.576;2022-09-17T08:11:06;13.30;99.90
45207;DHT22;30950;53.086;21.576;2022-09-17T08:13:34;13.40;99.90
45207;DHT22;30950;53.086;21.576;2022-09-17T08:16:06;13.40;99.90
45207;DHT22;30950;53.086;21.576;2022-09-17T08:18:34;13.50;99.90
45207;DHT22;30950;53.086;21.576;2022-09-17T08:21:04;13.50;99.90
45207;DHT22;30950;53.086;21.576;2022-09-17T08:23:34;13.50;99.90
45207;DHT22;30950;53.086;21.576;2022-09-17T08:26:03;13.40;99.90
45207;DHT22;30950;53.086;21.576;2022-09-17T08:28:31;13.50;99.90
45207;DHT22;30950;53.086;21.576;2022-09-17T08:31:06;13.50;99.90
45207;DHT22;30950;53.086;21.576;2022-09-17T08:33:37;13.50;99.90
45207;DHT22;30950;53.086;21.576;2022-09-17T08:36:06;13.50;99.90
45207;DHT22;30950;53.086;21.576;2022-09-17T08:38:34;13.60;99.90
45207;DHT22;30950;53.086;21.576;2022-09-17T08:43:51;13.70;99.90
45207;DHT22;30950;53.086;21.576;2022-09-17T08:46:25;13.80;99.90
45207;DHT22;30950;53.086;21.576;2022-09-17T08:49:00;13.90;99.90
45207;DHT22;30950;53.086;21.576;2022-09-17T08:54:46;13.90;99.90
45207;DHT22;30950;53.086;21.576;2022-09-17T09:00:02;13.80;99.90
45207;DHT22;30950;53.086;21.576;2022-09-17T09:05:46;14.00;99.90
45207;DHT22;30950;53.086;21.576;2022-09-17T09:08:23;14.10;99.90
45207;DHT22;30950;53.086;21.576;2022-09-17T09:10:57;14.20;99.90
45207;DHT22;30950;53.086;21.576;2022-09-17T09:13:28;14.20;99.90
45207;DHT22;30950;53.086;21.576;2022-09-17T09:16:09;14.10;99.90
45207;DHT22;30950;53.086;21.576;2022-09-17T09:18:39;14.00;99.90
45207;DHT22;30950;53.086;21.576;2022-09-17T09:23:56;13.90;99.90
45207;DHT22;30950;53.086;21.576;2022-09-17T09:34:43;13.90;99.90
45207;DHT22;30950;53.086;21.576;2022-09-17T09:39:42;13.90;99.90
45207;DHT22;30950;53.086;21.576;2022-09-17T09:42:34;13.90;99.90
45207;DHT22;30950;53.086;21.576;2022-09-17T09:45:16;14.00;99.90
45207;DHT22;30950;53.086;21.576;2022-09-17T09:48:18;14.00;99.90
45207;DHT22;30950;53.086;21.576;2022-09-17T09:56:08;14.00;99.90
45207;DHT22;30950;53.086;21.576;2022-09-17T09:58:39;14.10;99.90
45207;DHT22;30950;53.086;21.576;2022-09-17T10:01:16;14.20;99.90
45207;DHT22;30950;53.086;21.576;2022-09-17T10:03:48;14.40;99.90
45207;DHT22;30950;53.086;21.576;2022-09-17T10:06:18;14.60;99.90
45207;DHT22;30950;53.086;21.576;2022-09-17T10:11:26;14.70;99.90
45207;DHT22;30950;53.086;21.576;2022-09-17T10:14:23;14.70;99.90
45207;DHT22;30950;53.086;21.576;2022-09-17T10:19:45;14.80;99.90
45207;DHT22;30950;53.086;21.576;2022-09-17T10:22:33;14.90;99.90
45207;DHT22;30950;53.086;21.576;2022-09-17T10:25:05;15.00;99.90
45207;DHT22;30950;53.086;21.576;2022-09-17T10:27:33;15.00;99.90
45207;DHT22;30950;53.086;21.576;2022-09-17T10:30:14;15.20;99.90
45207;DHT22;30950;53.086;21.576;2022-09-17T10:32:43;15.30;99.90
45207;DHT22;30950;53.086;21.576;2022-09-17T10:42:48;16.00;99.90
45207;DHT22;30950;53.086;21.576;2022-09-17T10:45:27;15.90;99.50
45207;DHT22;30950;53.086;21.576;2022-09-17T10:47:56;15.90;99.60
45207;DHT22;30950;53.086;21.576;2022-09-17T10:50:26;15.70;99.30
45207;DHT22;30950;53.086;21.576;2022-09-17T10:52:59;15.50;99.50
45207;DHT22;30950;53.086;21.576;2022-09-17T11:01:28;15.10;99.90
45207;DHT22;30950;53.086;21.576;2022-09-17T11:10:11;15.10;99.90
45207;DHT22;30950;53.086;21.576;2022-09-17T11:18:04;15.30;99.90
45207;DHT22;30950;53.086;21.576;2022-09-17T11:21:01;15.30;99.90
45207;DHT22;30950;53.086;21.576;2022-09-17T11:26:28;15.40;99.90
45207;DHT22;30950;53.086;21.576;2022-09-17T11:34:35;15.30;99.90
45207;DHT22;30950;53.086;21.576;2022-09-17T11:37:31;15.40;99.90
45207;DHT22;30950;53.086;21.576;2022-09-17T11:40:02;15.50;99.90
45207;DHT22;30950;53.086;21.576;2022-09-17T11:42:43;15.40;99.90
45207;DHT22;30950;53.086;21.576;2022-09-17T11:45:30;15.50;99.90
45207;DHT22;30950;53.086;21.576;2022-09-17T11:50:45;15.50;99.90
45207;DHT22;30950;53.086;21.576;2022-09-17T11:53:31;15.50;99.90
45207;DHT22;30950;53.086;21.576;2022-09-17T11:58:59;15.40;99.90
45207;DHT22;30950;53.086;21.576;2022-09-17T12:04:41;15.50;99.90
45207;DHT22;30950;53.086;21.576;2022-09-17T12:10:19;15.50;99.90
45207;DHT22;30950;53.086;21.576;2022-09-17T12:13:01;15.30;99.90
45207;DHT22;30950;53.086;21.576;2022-09-17T12:15:34;15.30;99.90
45207;DHT22;30950;53.086;21.576;2022-09-17T12:18:26;15.30;99.90
45207;DHT22;30950;53.086;21.576;2022-09-17T12:21:02;15.20;99.90
45207;DHT22;30950;53.086;21.576;2022-09-17T12:23:41;15.10;99.90
45207;DHT22;30950;53.086;21.576;2022-09-17T12:31:53;15.10;99.90
45207;DHT22;30950;53.086;21.576;2022-09-17T12:40:27;15.00;99.90
45207;DHT22;30950;53.086;21.576;2022-09-17T12:43:12;15.00;99.90
45207;DHT22;30950;53.086;21.576;2022-09-17T12:51:58;15.00;99.90
45207;DHT22;30950;53.086;21.576;2022-09-17T13:00:09;15.10;99.90
45207;DHT22;30950;53.086;21.576;2022-09-17T13:02:45;15.30;99.90
45207;DHT22;30950;53.086;21.576;2022-09-17T13:16:49;16.40;99.70
45207;DHT22;30950;53.086;21.576;2022-09-17T13:22:17;16.80;98.10
45207;DHT22;30950;53.086;21.576;2022-09-17T13:24:46;16.80;96.80
45207;DHT22;30950;53.086;21.576;2022-09-17T13:27:21;16.70;96.70
45207;DHT22;30950;53.086;21.576;2022-09-17T13:29:57;16.60;96.70
45207;DHT22;30950;53.086;21.576;2022-09-17T13:32:50;16.60;96.80
45207;DHT22;30950;53.086;21.576;2022-09-17T13:42:55;16.30;97.50
45207;DHT22;30950;53.086;21.576;2022-09-17T13:45:25;16.30;97.50
45207;DHT22;30950;53.086;21.576;2022-09-17T13:55:42;16.00;97.90
45207;DHT22;30950;53.086;21.576;2022-09-17T13:58:20;15.90;98.10
45207;DHT22;30950;53.086;21.576;2022-09-17T14:01:04;15.90;98.20
45207;DHT22;30950;53.086;21.576;2022-09-17T14:16:34;15.40;99.20
45207;DHT22;30950;53.086;21.576;2022-09-17T14:21:54;15.30;99.80
45207;DHT22;30950;53.086;21.576;2022-09-17T14:35:35;15.10;99.90
45207;DHT22;30950;53.086;21.576;2022-09-17T14:38:20;15.10;99.90
45207;DHT22;30950;53.086;21.576;2022-09-17T14:41:02;15.00;99.90
45207;DHT22;30950;53.086;21.576;2022-09-17T14:45:59;15.00;99.90
45207;DHT22;30950;53.086;21.576;2022-09-17T14:48:34;15.00;99.90
45207;DHT22;30950;53.086;21.576;2022-09-17T14:56:34;15.10;99.90
45207;DHT22;30950;53.086;21.576;2022-09-17T14:59:02;15.00;99.90
45207;DHT22;30950;53.086;21.576;2022-09-17T15:01:30;15.00;99.90
45207;DHT22;30950;53.086;21.576;2022-09-17T15:06:40;14.90;99.90
45207;DHT22;30950;53.086;21.576;2022-09-17T15:11:44;14.80;99.90
45207;DHT22;30950;53.086;21.576;2022-09-17T15:14:20;14.90;99.90
45207;DHT22;30950;53.086;21.576;2022-09-17T15:16:51;14.90;99.90
45207;DHT22;30950;53.086;21.576;2022-09-17T15:19:25;15.00;99.90
45207;DHT22;30950;53.086;21.576;2022-09-17T15:21:56;15.00;99.90
45207;DHT22;30950;53.086;21.576;2022-09-17T15:24:49;15.10;99.90
45207;DHT22;30950;53.086;21.576;2022-09-17T15:27:30;15.20;99.90
45207;DHT22;30950;53.086;21.576;2022-09-17T15:32:36;15.40;99.90
45207;DHT22;30950;53.086;21.576;2022-09-17T15:37:43;15.60;99.90
45207;DHT22;30950;53.086;21.576;2022-09-17T15:40:39;15.60;99.90
45207;DHT22;30950;53.086;21.576;2022-09-17T15:45:50;15.70;99.90
45207;DHT22;30950;53.086;21.576;2022-09-17T15:50:58;15.70;99.90
45207;DHT22;30950;53.086;21.576;2022-09-17T15:53:31;15.70;99.90
45207;DHT22;30950;53.086;21.576;2022-09-17T16:08:51;15.00;99.90
45207;DHT22;30950;53.086;21.576;2022-09-17T16:11:21;15.00;99.90
45207;DHT22;30950;53.086;21.576;2022-09-17T16:13:49;14.80;99.90
45207;DHT22;30950;53.086;21.576;2022-09-17T16:16:19;14.70;99.90
45207;DHT22;30950;53.086;21.576;2022-09-17T16:18:48;14.60;99.90
45207;DHT22;30950;53.086;21.576;2022-09-17T16:21:17;14.50;99.90
45207;DHT22;30950;53.086;21.576;2022-09-17T16:23:45;14.40;99.90
45207;DHT22;30950;53.086;21.576;2022-09-17T16:26:32;14.30;99.90
45207;DHT22;30950;53.086;21.576;2022-09-17T16:29:06;14.20;99.90
45207;DHT22;30950;53.086;21.576;2022-09-17T16:31:34;14.10;99.90
45207;DHT22;30950;53.086;21.576;2022-09-17T16:34:02;14.00;99.90
45207;DHT22;30950;53.086;21.576;2022-09-17T16:36:29;13.80;99.90
45207;DHT22;30950;53.086;21.576;2022-09-17T16:38:59;13.80;99.90
45207;DHT22;30950;53.086;21.576;2022-09-17T16:41:27;13.70;99.90
45207;DHT22;30950;53.086;21.576;2022-09-17T16:43:54;13.60;99.90
45207;DHT22;30950;53.086;21.576;2022-09-17T16:46:21;13.60;99.90
45207;DHT22;30950;53.086;21.576;2022-09-17T16:48:49;13.40;99.90
45207;DHT22;30950;53.086;21.576;2022-09-17T16:51:17;13.40;99.90
45207;DHT22;30950;53.086;21.576;2022-09-17T16:53:44;13.30;99.90
45207;DHT22;30950;53.086;21.576;2022-09-17T16:56:13;13.20;99.90
45207;DHT22;30950;53.086;21.576;2022-09-17T16:58:41;13.20;99.90
45207;DHT22;30950;53.086;21.576;2022-09-17T17:01:13;13.10;99.90
45207;DHT22;30950;53.086;21.576;2022-09-17T17:03:41;13.10;99.90
45207;DHT22;30950;53.086;21.576;2022-09-17T17:06:19;13.00;99.90
45207;DHT22;30950;53.086;21.576;2022-09-17T17:08:47;13.00;99.90
45207;DHT22;30950;53.086;21.576;2022-09-17T17:11:15;12.90;99.90
45207;DHT22;30950;53.086;21.576;2022-09-17T17:13:42;12.80;99.90
45207;DHT22;30950;53.086;21.576;2022-09-17T17:16:12;12.80;99.90
45207;DHT22;30950;53.086;21.576;2022-09-17T17:18:43;12.70;99.90
45207;DHT22;30950;53.086;21.576;2022-09-17T17:21:12;12.70;99.90
45207;DHT22;30950;53.086;21.576;2022-09-17T17:23:40;12.70;99.90
45207;DHT22;30950;53.086;21.576;2022-09-17T17:26:09;12.60;99.90
45207;DHT22;30950;53.086;21.576;2022-09-17T17:28:37;12.50;99.90
45207;DHT22;30950;53.086;21.576;2022-09-17T17:31:05;12.50;99.90
45207;DHT22;30950;53.086;21.576;2022-09-17T17:33:32;12.40;99.90
45207;DHT22;30950;53.086;21.576;2022-09-17T17:36:01;12.40;99.90
45207;DHT22;30950;53.086;21.576;2022-09-17T17:38:34;12.30;99.90
45207;DHT22;30950;53.086;21.576;2022-09-17T17:41:03;12.20;99.90
45207;DHT22;30950;53.086;21.576;2022-09-17T17:43:31;12.20;99.90
45207;DHT22;30950;53.086;21.576;2022-09-17T17:45:58;12.20;99.90
45207;DHT22;30950;53.086;21.576;2022-09-17T17:48:26;12.10;99.90
45207;DHT22;30950;53.086;21.576;2022-09-17T17:50:53;12.10;99.90
45207;DHT22;30950;53.086;21.576;2022-09-17T17:53:23;12.10;99.90
45207;DHT22;30950;53.086;21.576;2022-09-17T17:56:04;12.00;99.90
45207;DHT22;30950;53.086;21.576;2022-09-17T17:58:33;12.10;99.90
45207;DHT22;30950;53.086;21.576;2022-09-17T18:01:21;12.00;99.90
45207;DHT22;30950;53.086;21.576;2022-09-17T18:03:49;12.00;99.90
45207;DHT22;30950;53.086;21.576;2022-09-17T18:06:16;12.00;99.90
45207;DHT22;30950;53.086;21.576;2022-09-17T18:08:43;12.00;99.90
45207;DHT22;30950;53.086;21.576;2022-09-17T18:11:11;12.00;99.90
45207;DHT22;30950;53.086;21.576;2022-09-17T18:13:39;11.90;99.90
45207;DHT22;30950;53.086;21.576;2022-09-17T18:16:09;11.90;99.90
45207;DHT22;30950;53.086;21.576;2022-09-17T18:18:39;11.90;99.90
45207;DHT22;30950;53.086;21.576;2022-09-17T18:21:16;11.80;99.90
45207;DHT22;30950;53.086;21.576;2022-09-17T18:23:45;11.80;99.90
45207;DHT22;30950;53.086;21.576;2022-09-17T18:26:18;11.80;99.90
45207;DHT22;30950;53.086;21.576;2022-09-17T18:28:47;11.70;99.90
45207;DHT22;30950;53.086;21.576;2022-09-17T18:31:21;11.70;99.90
45207;DHT22;30950;53.086;21.576;2022-09-17T18:34:00;11.70;99.90
45207;DHT22;30950;53.086;21.576;2022-09-17T18:36:30;11.60;99.90
45207;DHT22;30950;53.086;21.576;2022-09-17T18:38:59;11.60;99.90
45207;DHT22;30950;53.086;21.576;2022-09-17T18:41:51;11.60;99.90
45207;DHT22;30950;53.086;21.576;2022-09-17T18:44:19;11.50;99.90
45207;DHT22;30950;53.086;21.576;2022-09-17T18:46:48;11.50;99.90
45207;DHT22;30950;53.086;21.576;2022-09-17T18:49:17;11.40;99.90
45207;DHT22;30950;53.086;21.576;2022-09-17T18:51:44;11.40;99.90
45207;DHT22;30950;53.086;21.576;2022-09-17T18:54:12;11.40;99.90
45207;DHT22;30950;53.086;21.576;2022-09-17T18:56:40;11.40;99.90
45207;DHT22;30950;53.086;21.576;2022-09-17T18:59:10;11.40;99.90
45207;DHT22;30950;53.086;21.576;2022-09-17T19:01:37;11.30;99.90
45207;DHT22;30950;53.086;21.576;2022-09-17T19:04:05;11.30;99.90
45207;DHT22;30950;53.086;21.576;2022-09-17T19:06:36;11.30;99.90
45207;DHT22;30950;53.086;21.576;2022-09-17T19:09:04;11.30;99.90
45207;DHT22;30950;53.086;21.576;2022-09-17T19:11:34;11.30;99.90
45207;DHT22;30950;53.086;21.576;2022-09-17T19:14:02;11.30;99.90
45207;DHT22;30950;53.086;21.576;2022-09-17T19:16:30;11.30;99.90
45207;DHT22;30950;53.086;21.576;2022-09-17T19:18:57;11.30;99.90
45207;DHT22;30950;53.086;21.576;2022-09-17T19:21:25;11.20;99.90
45207;DHT22;30950;53.086;21.576;2022-09-17T19:23:52;11.20;99.90
45207;DHT22;30950;53.086;21.576;2022-09-17T19:26:22;11.20;99.90
45207;DHT22;30950;53.086;21.576;2022-09-17T19:28:57;11.20;99.90
45207;DHT22;30950;53.086;21.576;2022-09-17T19:31:26;11.10;99.90
45207;DHT22;30950;53.086;21.576;2022-09-17T19:33:54;11.00;99.90
45207;DHT22;30950;53.086;21.576;2022-09-17T19:36:22;11.00;99.90
45207;DHT22;30950;53.086;21.576;2022-09-17T19:38:49;11.00;99.90
45207;DHT22;30950;53.086;21.576;2022-09-17T19:41:18;11.00;99.90
45207;DHT22;30950;53.086;21.576;2022-09-17T19:43:53;11.00;99.90
45207;DHT22;30950;53.086;21.576;2022-09-17T19:46:23;10.90;99.90
45207;DHT22;30950;53.086;21.576;2022-09-17T19:48:53;10.90;99.90
45207;DHT22;30950;53.086;21.576;2022-09-17T19:51:22;10.90;99.90